sensor_id;sensor_type;location;lat;lon;timestamp;P1;durP1;ratioP1;P2;durP2;ratioP2
85303;SDS011;75708;47.930;13.782;2024-03-06T00:01:44;16.70;;;7.60;;
85303;SDS011;75708;47.930;13.782;2024-03-06T00:04:09;19.23;;;7.20;;
85303;SDS011;75708;47.930;13.782;2024-03-06T00:06:35;13.90;;;6.63;;
85303;SDS011;75708;47.930;13.782;2024-03-06T00:09:01;19.30;;;7.43;;
85303;SDS011;75708;47.930;13.782;2024-03-06T00:11:28;18.25;;;7.47;;
85303;SDS011;75708;47.930;13.782;2024-03-06T00:13:53;16.65;;;6.93;;
85303;SDS011;75708;47.930;13.782;2024-03-06T00:16:19;17.90;;;6.25;;
85303;SDS011;75708;47.930;13.782;2024-03-06T00:18:45;17.67;;;7.10;;
85303;SDS011;75708;47.930;13.782;2024-03-06T00:21:10;16.83;;;7.85;;
85303;SDS011;75708;47.930;13.782;2024-03-06T00:23:37;16.77;;;8.20;;
85303;SDS011;75708;47.930;13.782;2024-03-06T00:26:03;16.60;;;7.22;;
85303;SDS011;75708;47.930;13.782;2024-03-06T00:28:29;15.80;;;7.20;;
85303;SDS011;75708;47.930;13.782;2024-03-06T00:30:55;17.92;;;8.52;;
85303;SDS011;75708;47.930;13.782;2024-03-06T00:33:20;16.42;;;7.38;;
85303;SDS011;75708;47.930;13.782;2024-03-06T00:35:46;15.45;;;8.25;;
85303;SDS011;75708;47.930;13.782;2024-03-06T00:38:11;18.38;;;7.68;;
85303;SDS011;75708;47.930;13.782;2024-03-06T00:40:38;16.00;;;7.75;;
85303;SDS011;75708;47.930;13.782;2024-03-06T00:43:04;16.27;;;7.28;;
85303;SDS011;75708;47.930;13.782;2024-03-06T00:45:30;20.00;;;7.85;;
85303;SDS011;75708;47.930;13.782;2024-03-06T00:47:55;19.88;;;9.50;;
85303;SDS011;75708;47.930;13.782;2024-03-06T00:50:21;26.20;;;9.85;;
85303;SDS011;75708;47.930;13.782;2024-03-06T00:52:47;27.10;;;12.00;;
85303;SDS011;75708;47.930;13.782;2024-03-06T00:55:13;25.52;;;10.50;;
85303;SDS011;75708;47.930;13.782;2024-03-06T00:57:39;22.58;;;9.45;;
85303;SDS011;75708;47.930;13.782;2024-03-06T01:00:05;20.40;;;8.02;;
85303;SDS011;75708;47.930;13.782;2024-03-06T01:02:35;19.45;;;8.13;;
85303;SDS011;75708;47.930;13.782;2024-03-06T01:05:02;13.52;;;7.55;;
85303;SDS011;75708;47.930;13.782;2024-03-06T01:07:29;18.42;;;8.27;;
85303;SDS011;75708;47.930;13.782;2024-03-06T01:09:55;20.25;;;7.60;;
85303;SDS011;75708;47.930;13.782;2024-03-06T01:12:22;17.33;;;7.93;;
85303;SDS011;75708;47.930;13.782;2024-03-06T01:14:49;16.65;;;7.30;;
85303;SDS011;75708;47.930;13.782;2024-03-06T01:17:14;19.02;;;7.97;;
85303;SDS011;75708;47.930;13.782;2024-03-06T01:19:40;22.55;;;7.90;;
85303;SDS011;75708;47.930;13.782;2024-03-06T01:22:08;21.27;;;7.97;;
85303;SDS011;75708;47.930;13.782;2024-03-06T01:24:34;20.20;;;8.63;;
85303;SDS011;75708;47.930;13.782;2024-03-06T01:27:00;21.08;;;8.45;;
85303;SDS011;75708;47.930;13.782;2024-03-06T01:29:28;22.55;;;8.70;;
85303;SDS011;75708;47.930;13.782;2024-03-06T01:31:54;23.80;;;9.25;;
85303;SDS011;75708;47.930;13.782;2024-03-06T01:34:19;24.75;;;9.82;;
85303;SDS011;75708;47.930;13.782;2024-03-06T01:36:45;23.33;;;9.32;;
85303;SDS011;75708;47.930;13.782;2024-03-06T01:39:11;19.25;;;8.10;;
85303;SDS011;75708;47.930;13.782;2024-03-06T01:41:36;23.77;;;9.30;;
85303;SDS011;75708;47.930;13.782;2024-03-06T01:44:02;18.88;;;8.55;;
85303;SDS011;75708;47.930;13.782;2024-03-06T01:46:28;25.73;;;9.95;;
85303;SDS011;75708;47.930;13.782;2024-03-06T01:48:54;23.67;;;9.48;;
85303;SDS011;75708;47.930;13.782;2024-03-06T01:51:20;21.67;;;8.70;;
85303;SDS011;75708;47.930;13.782;2024-03-06T01:53:46;26.20;;;10.48;;
85303;SDS011;75708;47.930;13.782;2024-03-06T01:56:12;24.25;;;9.82;;
85303;SDS011;75708;47.930;13.782;2024-03-06T01:58:42;27.85;;;10.50;;
85303;SDS011;75708;47.930;13.782;2024-03-06T02:01:10;25.70;;;9.45;;
85303;SDS011;75708;47.930;13.782;2024-03-06T02:03:36;26.05;;;9.27;;
85303;SDS011;75708;47.930;13.782;2024-03-06T02:06:02;21.10;;;9.52;;
85303;SDS011;75708;47.930;13.782;2024-03-06T02:08:28;34.55;;;10.35;;
85303;SDS011;75708;47.930;13.782;2024-03-06T02:10:54;21.23;;;8.13;;
85303;SDS011;75708;47.930;13.782;2024-03-06T02:13:20;22.70;;;8.68;;
85303;SDS011;75708;47.930;13.782;2024-03-06T02:15:46;24.35;;;9.85;;
85303;SDS011;75708;47.930;13.782;2024-03-06T02:18:11;28.30;;;8.90;;
85303;SDS011;75708;47.930;13.782;2024-03-06T02:20:40;28.33;;;10.55;;
85303;SDS011;75708;47.930;13.782;2024-03-06T02:23:06;28.15;;;10.38;;
85303;SDS011;75708;47.930;13.782;2024-03-06T02:25:32;27.75;;;10.57;;
85303;SDS011;75708;47.930;13.782;2024-03-06T02:27:58;28.17;;;10.40;;
85303;SDS011;75708;47.930;13.782;2024-03-06T02:30:24;25.02;;;9.93;;
85303;SDS011;75708;47.930;13.782;2024-03-06T02:32:49;31.88;;;11.30;;
85303;SDS011;75708;47.930;13.782;2024-03-06T02:35:15;24.05;;;9.65;;
85303;SDS011;75708;47.930;13.782;2024-03-06T02:37:43;29.67;;;10.70;;
85303;SDS011;75708;47.930;13.782;2024-03-06T02:40:09;21.73;;;10.07;;
85303;SDS011;75708;47.930;13.782;2024-03-06T02:42:35;25.65;;;10.57;;
85303;SDS011;75708;47.930;13.782;2024-03-06T02:45:05;27.25;;;10.15;;
85303;SDS011;75708;47.930;13.782;2024-03-06T02:47:32;24.88;;;10.30;;
85303;SDS011;75708;47.930;13.782;2024-03-06T02:49:58;24.10;;;9.85;;
85303;SDS011;75708;47.930;13.782;2024-03-06T02:52:23;21.52;;;9.40;;
85303;SDS011;75708;47.930;13.782;2024-03-06T02:54:49;23.83;;;9.98;;
85303;SDS011;75708;47.930;13.782;2024-03-06T02:57:14;27.23;;;10.30;;
85303;SDS011;75708;47.930;13.782;2024-03-06T02:59:40;23.73;;;10.30;;
85303;SDS011;75708;47.930;13.782;2024-03-06T03:02:06;29.05;;;11.52;;
85303;SDS011;75708;47.930;13.782;2024-03-06T03:04:31;25.42;;;10.43;;
85303;SDS011;75708;47.930;13.782;2024-03-06T03:06:57;24.65;;;10.63;;
85303;SDS011;75708;47.930;13.782;2024-03-06T03:09:22;29.05;;;9.70;;
85303;SDS011;75708;47.930;13.782;2024-03-06T03:11:48;28.83;;;10.48;;
85303;SDS011;75708;47.930;13.782;2024-03-06T03:14:14;26.42;;;10.70;;
85303;SDS011;75708;47.930;13.782;2024-03-06T03:16:39;26.77;;;10.55;;
85303;SDS011;75708;47.930;13.782;2024-03-06T03:19:06;22.67;;;10.38;;
85303;SDS011;75708;47.930;13.782;2024-03-06T03:21:33;24.65;;;10.98;;
85303;SDS011;75708;47.930;13.782;2024-03-06T03:23:59;27.10;;;11.18;;
85303;SDS011;75708;47.930;13.782;2024-03-06T03:26:24;25.30;;;9.98;;
85303;SDS011;75708;47.930;13.782;2024-03-06T03:28:50;24.95;;;10.82;;
85303;SDS011;75708;47.930;13.782;2024-03-06T03:31:16;25.55;;;10.93;;
85303;SDS011;75708;47.930;13.782;2024-03-06T03:33:41;25.40;;;10.32;;
85303;SDS011;75708;47.930;13.782;2024-03-06T03:36:07;28.17;;;11.00;;
85303;SDS011;75708;47.930;13.782;2024-03-06T03:38:34;25.55;;;10.60;;
85303;SDS011;75708;47.930;13.782;2024-03-06T03:41:03;24.63;;;11.15;;
85303;SDS011;75708;47.930;13.782;2024-03-06T03:43:32;22.63;;;8.95;;
85303;SDS011;75708;47.930;13.782;2024-03-06T03:45:58;22.80;;;10.27;;
85303;SDS011;75708;47.930;13.782;2024-03-06T03:48:24;27.48;;;10.85;;
85303;SDS011;75708;47.930;13.782;2024-03-06T03:50:50;24.05;;;9.57;;
85303;SDS011;75708;47.930;13.782;2024-03-06T03:53:15;22.02;;;7.78;;
85303;SDS011;75708;47.930;13.782;2024-03-06T03:55:41;23.70;;;9.80;;
85303;SDS011;75708;47.930;13.782;2024-03-06T03:58:06;22.13;;;8.82;;
85303;SDS011;75708;47.930;13.782;2024-03-06T04:00:32;17.23;;;7.78;;
85303;SDS011;75708;47.930;13.782;2024-03-06T04:02:58;26.45;;;9.10;;
85303;SDS011;75708;47.930;13.782;2024-03-06T04:05:24;24.27;;;9.43;;
85303;SDS011;75708;47.930;13.782;2024-03-06T04:07:50;26.48;;;9.98;;
85303;SDS011;75708;47.930;13.782;2024-03-06T04:10:16;24.20;;;8.85;;
85303;SDS011;75708;47.930;13.782;2024-03-06T04:12:42;20.85;;;9.35;;
85303;SDS011;75708;47.930;13.782;2024-03-06T04:15:07;32.00;;;10.18;;
85303;SDS011;75708;47.930;13.782;2024-03-06T04:17:34;25.02;;;9.40;;
85303;SDS011;75708;47.930;13.782;2024-03-06T04:20:01;26.98;;;10.75;;
85303;SDS011;75708;47.930;13.782;2024-03-06T04:22:28;19.55;;;8.45;;
85303;SDS011;75708;47.930;13.782;2024-03-06T04:24:54;25.80;;;10.02;;
85303;SDS011;75708;47.930;13.782;2024-03-06T04:27:21;30.52;;;12.20;;
85303;SDS011;75708;47.930;13.782;2024-03-06T04:29:46;26.83;;;10.95;;
85303;SDS011;75708;47.930;13.782;2024-03-06T04:32:12;32.13;;;11.25;;
85303;SDS011;75708;47.930;13.782;2024-03-06T04:34:37;27.27;;;11.93;;
85303;SDS011;75708;47.930;13.782;2024-03-06T04:37:03;28.33;;;11.23;;
85303;SDS011;75708;47.930;13.782;2024-03-06T04:39:29;24.90;;;9.45;;
85303;SDS011;75708;47.930;13.782;2024-03-06T04:41:54;21.25;;;9.52;;
85303;SDS011;75708;47.930;13.782;2024-03-06T04:44:20;28.33;;;10.90;;
85303;SDS011;75708;47.930;13.782;2024-03-06T04:46:45;25.35;;;10.50;;
85303;SDS011;75708;47.930;13.782;2024-03-06T04:49:11;28.65;;;10.65;;
85303;SDS011;75708;47.930;13.782;2024-03-06T04:51:36;30.15;;;10.20;;
85303;SDS011;75708;47.930;13.782;2024-03-06T04:54:02;33.15;;;11.85;;
85303;SDS011;75708;47.930;13.782;2024-03-06T04:56:28;29.92;;;10.27;;
85303;SDS011;75708;47.930;13.782;2024-03-06T04:58:53;27.15;;;10.55;;
85303;SDS011;75708;47.930;13.782;2024-03-06T05:01:19;29.83;;;11.68;;
85303;SDS011;75708;47.930;13.782;2024-03-06T05:03:45;30.77;;;10.38;;
85303;SDS011;75708;47.930;13.782;2024-03-06T05:06:10;30.23;;;11.55;;
85303;SDS011;75708;47.930;13.782;2024-03-06T05:08:36;28.98;;;11.32;;
85303;SDS011;75708;47.930;13.782;2024-03-06T05:11:03;27.83;;;11.00;;
85303;SDS011;75708;47.930;13.782;2024-03-06T05:13:28;33.88;;;11.57;;
85303;SDS011;75708;47.930;13.782;2024-03-06T05:15:54;31.50;;;11.48;;
85303;SDS011;75708;47.930;13.782;2024-03-06T05:18:19;29.13;;;11.18;;
85303;SDS011;75708;47.930;13.782;2024-03-06T05:20:45;27.80;;;11.18;;
85303;SDS011;75708;47.930;13.782;2024-03-06T05:23:11;30.30;;;11.77;;
85303;SDS011;75708;47.930;13.782;2024-03-06T05:25:37;28.23;;;11.10;;
85303;SDS011;75708;47.930;13.782;2024-03-06T05:28:03;28.45;;;10.45;;
85303;SDS011;75708;47.930;13.782;2024-03-06T05:30:29;27.48;;;10.50;;
85303;SDS011;75708;47.930;13.782;2024-03-06T05:32:55;29.80;;;10.60;;
85303;SDS011;75708;47.930;13.782;2024-03-06T05:35:21;29.67;;;12.25;;
85303;SDS011;75708;47.930;13.782;2024-03-06T05:37:47;26.42;;;11.77;;
85303;SDS011;75708;47.930;13.782;2024-03-06T05:40:12;29.00;;;12.20;;
85303;SDS011;75708;47.930;13.782;2024-03-06T05:42:38;32.67;;;11.85;;
85303;SDS011;75708;47.930;13.782;2024-03-06T05:45:04;39.13;;;13.35;;
85303;SDS011;75708;47.930;13.782;2024-03-06T05:47:38;33.53;;;13.13;;
85303;SDS011;75708;47.930;13.782;2024-03-06T05:50:05;30.67;;;11.52;;
85303;SDS011;75708;47.930;13.782;2024-03-06T05:52:32;29.27;;;11.80;;
85303;SDS011;75708;47.930;13.782;2024-03-06T05:54:59;30.50;;;12.57;;
85303;SDS011;75708;47.930;13.782;2024-03-06T05:57:25;32.55;;;12.85;;
85303;SDS011;75708;47.930;13.782;2024-03-06T05:59:50;38.42;;;13.35;;
85303;SDS011;75708;47.930;13.782;2024-03-06T06:02:16;38.33;;;13.30;;
85303;SDS011;75708;47.930;13.782;2024-03-06T06:04:42;42.72;;;15.82;;
85303;SDS011;75708;47.930;13.782;2024-03-06T06:07:07;44.22;;;15.18;;
85303;SDS011;75708;47.930;13.782;2024-03-06T06:09:33;49.28;;;16.20;;
85303;SDS011;75708;47.930;13.782;2024-03-06T06:11:58;59.17;;;17.88;;
85303;SDS011;75708;47.930;13.782;2024-03-06T06:14:24;46.58;;;15.77;;
85303;SDS011;75708;47.930;13.782;2024-03-06T06:16:52;44.92;;;14.80;;
85303;SDS011;75708;47.930;13.782;2024-03-06T06:19:18;56.80;;;17.20;;
85303;SDS011;75708;47.930;13.782;2024-03-06T06:21:43;61.13;;;19.10;;
85303;SDS011;75708;47.930;13.782;2024-03-06T06:24:09;58.55;;;19.15;;
85303;SDS011;75708;47.930;13.782;2024-03-06T06:26:34;47.00;;;16.92;;
85303;SDS011;75708;47.930;13.782;2024-03-06T06:29:00;53.38;;;17.48;;
85303;SDS011;75708;47.930;13.782;2024-03-06T06:31:26;35.13;;;15.52;;
85303;SDS011;75708;47.930;13.782;2024-03-06T06:33:52;44.67;;;16.58;;
85303;SDS011;75708;47.930;13.782;2024-03-06T06:36:18;55.85;;;20.02;;
85303;SDS011;75708;47.930;13.782;2024-03-06T06:38:45;54.17;;;18.83;;
85303;SDS011;75708;47.930;13.782;2024-03-06T06:41:11;39.17;;;14.27;;
85303;SDS011;75708;47.930;13.782;2024-03-06T06:43:36;53.38;;;18.75;;
85303;SDS011;75708;47.930;13.782;2024-03-06T06:46:02;51.63;;;16.02;;
85303;SDS011;75708;47.930;13.782;2024-03-06T06:48:30;42.50;;;16.15;;
85303;SDS011;75708;47.930;13.782;2024-03-06T06:50:55;40.33;;;15.98;;
85303;SDS011;75708;47.930;13.782;2024-03-06T06:53:21;43.55;;;16.48;;
85303;SDS011;75708;47.930;13.782;2024-03-06T06:55:46;43.67;;;17.08;;
85303;SDS011;75708;47.930;13.782;2024-03-06T06:58:12;42.40;;;17.55;;
85303;SDS011;75708;47.930;13.782;2024-03-06T07:00:37;36.97;;;13.52;;
85303;SDS011;75708;47.930;13.782;2024-03-06T07:03:03;34.38;;;13.77;;
85303;SDS011;75708;47.930;13.782;2024-03-06T07:05:29;40.38;;;15.52;;
85303;SDS011;75708;47.930;13.782;2024-03-06T07:07:54;39.63;;;15.80;;
85303;SDS011;75708;47.930;13.782;2024-03-06T07:10:22;42.05;;;15.43;;
85303;SDS011;75708;47.930;13.782;2024-03-06T07:12:48;36.72;;;15.88;;
85303;SDS011;75708;47.930;13.782;2024-03-06T07:15:14;41.15;;;15.80;;
85303;SDS011;75708;47.930;13.782;2024-03-06T07:17:39;38.15;;;16.13;;
85303;SDS011;75708;47.930;13.782;2024-03-06T07:20:05;40.25;;;16.42;;
85303;SDS011;75708;47.930;13.782;2024-03-06T07:22:31;37.05;;;15.52;;
85303;SDS011;75708;47.930;13.782;2024-03-06T07:24:59;33.38;;;14.38;;
85303;SDS011;75708;47.930;13.782;2024-03-06T07:27:24;40.47;;;17.30;;
85303;SDS011;75708;47.930;13.782;2024-03-06T07:29:50;40.38;;;16.00;;
85303;SDS011;75708;47.930;13.782;2024-03-06T07:32:15;35.67;;;15.98;;
85303;SDS011;75708;47.930;13.782;2024-03-06T07:34:41;38.50;;;16.25;;
85303;SDS011;75708;47.930;13.782;2024-03-06T07:37:06;34.95;;;14.93;;
85303;SDS011;75708;47.930;13.782;2024-03-06T07:39:32;39.65;;;16.50;;
85303;SDS011;75708;47.930;13.782;2024-03-06T07:41:57;35.67;;;16.33;;
85303;SDS011;75708;47.930;13.782;2024-03-06T07:44:23;39.72;;;16.15;;
85303;SDS011;75708;47.930;13.782;2024-03-06T07:46:48;39.22;;;15.32;;
85303;SDS011;75708;47.930;13.782;2024-03-06T07:49:14;30.20;;;14.52;;
85303;SDS011;75708;47.930;13.782;2024-03-06T07:51:39;37.50;;;15.52;;
85303;SDS011;75708;47.930;13.782;2024-03-06T07:54:06;39.25;;;16.58;;
85303;SDS011;75708;47.930;13.782;2024-03-06T07:56:32;39.63;;;16.52;;
85303;SDS011;75708;47.930;13.782;2024-03-06T07:58:59;34.45;;;15.77;;
85303;SDS011;75708;47.930;13.782;2024-03-06T08:01:25;37.72;;;16.40;;
85303;SDS011;75708;47.930;13.782;2024-03-06T08:03:51;39.75;;;16.75;;
85303;SDS011;75708;47.930;13.782;2024-03-06T08:06:18;41.00;;;17.30;;
85303;SDS011;75708;47.930;13.782;2024-03-06T08:08:43;35.80;;;15.43;;
85303;SDS011;75708;47.930;13.782;2024-03-06T08:11:10;38.40;;;16.45;;
85303;SDS011;75708;47.930;13.782;2024-03-06T08:13:37;41.05;;;18.00;;
85303;SDS011;75708;47.930;13.782;2024-03-06T08:16:03;39.90;;;17.73;;
85303;SDS011;75708;47.930;13.782;2024-03-06T08:18:29;47.47;;;18.35;;
85303;SDS011;75708;47.930;13.782;2024-03-06T08:20:55;45.20;;;18.38;;
85303;SDS011;75708;47.930;13.782;2024-03-06T08:23:21;46.15;;;18.08;;
85303;SDS011;75708;47.930;13.782;2024-03-06T08:25:48;47.13;;;18.13;;
85303;SDS011;75708;47.930;13.782;2024-03-06T08:28:14;44.63;;;17.80;;
85303;SDS011;75708;47.930;13.782;2024-03-06T08:30:39;42.45;;;17.80;;
85303;SDS011;75708;47.930;13.782;2024-03-06T08:33:05;45.03;;;18.83;;
85303;SDS011;75708;47.930;13.782;2024-03-06T08:35:30;42.45;;;19.15;;
85303;SDS011;75708;47.930;13.782;2024-03-06T08:37:57;44.10;;;17.75;;
85303;SDS011;75708;47.930;13.782;2024-03-06T08:40:22;47.22;;;17.70;;
85303;SDS011;75708;47.930;13.782;2024-03-06T08:42:48;44.17;;;18.67;;
85303;SDS011;75708;47.930;13.782;2024-03-06T08:45:14;42.60;;;18.25;;
85303;SDS011;75708;47.930;13.782;2024-03-06T08:47:40;37.08;;;16.17;;
85303;SDS011;75708;47.930;13.782;2024-03-06T08:50:10;49.33;;;19.73;;
85303;SDS011;75708;47.930;13.782;2024-03-06T08:52:36;42.33;;;17.00;;
85303;SDS011;75708;47.930;13.782;2024-03-06T08:55:02;40.20;;;16.75;;
85303;SDS011;75708;47.930;13.782;2024-03-06T08:57:32;42.05;;;18.10;;
85303;SDS011;75708;47.930;13.782;2024-03-06T08:59:58;36.08;;;16.95;;
85303;SDS011;75708;47.930;13.782;2024-03-06T09:02:24;41.67;;;17.40;;
85303;SDS011;75708;47.930;13.782;2024-03-06T09:04:50;39.92;;;18.23;;
85303;SDS011;75708;47.930;13.782;2024-03-06T09:07:17;35.20;;;15.30;;
85303;SDS011;75708;47.930;13.782;2024-03-06T09:09:43;38.45;;;16.60;;
85303;SDS011;75708;47.930;13.782;2024-03-06T09:12:08;35.05;;;16.00;;
85303;SDS011;75708;47.930;13.782;2024-03-06T09:14:35;43.40;;;19.45;;
85303;SDS011;75708;47.930;13.782;2024-03-06T09:17:02;36.03;;;14.27;;
85303;SDS011;75708;47.930;13.782;2024-03-06T09:19:29;28.75;;;13.48;;
85303;SDS011;75708;47.930;13.782;2024-03-06T09:21:55;37.70;;;16.63;;
85303;SDS011;75708;47.930;13.782;2024-03-06T09:24:21;38.45;;;17.13;;
85303;SDS011;75708;47.930;13.782;2024-03-06T09:26:48;37.17;;;16.77;;
85303;SDS011;75708;47.930;13.782;2024-03-06T09:29:14;38.53;;;14.55;;
85303;SDS011;75708;47.930;13.782;2024-03-06T09:31:39;26.73;;;11.70;;
85303;SDS011;75708;47.930;13.782;2024-03-06T09:34:06;30.20;;;12.43;;
85303;SDS011;75708;47.930;13.782;2024-03-06T09:36:32;36.13;;;17.48;;
85303;SDS011;75708;47.930;13.782;2024-03-06T09:39:01;35.88;;;16.50;;
85303;SDS011;75708;47.930;13.782;2024-03-06T09:41:29;29.30;;;13.38;;
85303;SDS011;75708;47.930;13.782;2024-03-06T09:43:55;39.28;;;16.15;;
85303;SDS011;75708;47.930;13.782;2024-03-06T09:46:20;36.65;;;14.73;;
85303;SDS011;75708;47.930;13.782;2024-03-06T09:48:47;33.78;;;14.32;;
85303;SDS011;75708;47.930;13.782;2024-03-06T09:51:14;28.23;;;13.73;;
85303;SDS011;75708;47.930;13.782;2024-03-06T09:53:39;28.35;;;12.23;;
85303;SDS011;75708;47.930;13.782;2024-03-06T09:56:07;25.70;;;12.98;;
85303;SDS011;75708;47.930;13.782;2024-03-06T09:58:35;30.80;;;12.77;;
85303;SDS011;75708;47.930;13.782;2024-03-06T10:01:01;29.58;;;14.05;;
85303;SDS011;75708;47.930;13.782;2024-03-06T10:03:32;32.30;;;13.13;;
85303;SDS011;75708;47.930;13.782;2024-03-06T10:06:02;27.83;;;14.20;;
85303;SDS011;75708;47.930;13.782;2024-03-06T10:08:27;30.48;;;16.00;;
85303;SDS011;75708;47.930;13.782;2024-03-06T10:10:53;26.33;;;12.20;;
85303;SDS011;75708;47.930;13.782;2024-03-06T10:13:22;30.02;;;14.85;;
85303;SDS011;75708;47.930;13.782;2024-03-06T10:15:57;30.60;;;13.50;;
85303;SDS011;75708;47.930;13.782;2024-03-06T10:20:54;29.10;;;13.07;;
85303;SDS011;75708;47.930;13.782;2024-03-06T10:23:20;30.90;;;13.75;;
85303;SDS011;75708;47.930;13.782;2024-03-06T10:25:50;31.55;;;13.60;;
85303;SDS011;75708;47.930;13.782;2024-03-06T10:28:18;31.48;;;13.98;;
85303;SDS011;75708;47.930;13.782;2024-03-06T10:30:45;32.03;;;11.45;;
85303;SDS011;75708;47.930;13.782;2024-03-06T10:33:14;26.65;;;12.50;;
85303;SDS011;75708;47.930;13.782;2024-03-06T10:35:44;22.67;;;10.35;;
85303;SDS011;75708;47.930;13.782;2024-03-06T10:38:13;24.83;;;12.02;;
85303;SDS011;75708;47.930;13.782;2024-03-06T10:40:39;28.15;;;12.70;;
85303;SDS011;75708;47.930;13.782;2024-03-06T10:43:06;24.25;;;11.77;;
85303;SDS011;75708;47.930;13.782;2024-03-06T10:45:46;25.45;;;11.00;;
85303;SDS011;75708;47.930;13.782;2024-03-06T10:48:13;25.15;;;11.40;;
85303;SDS011;75708;47.930;13.782;2024-03-06T10:50:40;26.95;;;12.57;;
85303;SDS011;75708;47.930;13.782;2024-03-06T10:53:10;31.33;;;12.90;;
85303;SDS011;75708;47.930;13.782;2024-03-06T10:55:38;30.27;;;14.23;;
85303;SDS011;75708;47.930;13.782;2024-03-06T10:58:08;24.50;;;12.25;;
85303;SDS011;75708;47.930;13.782;2024-03-06T11:00:44;16.67;;;8.75;;
85303;SDS011;75708;47.930;13.782;2024-03-06T11:03:14;26.98;;;11.88;;
85303;SDS011;75708;47.930;13.782;2024-03-06T11:05:41;20.65;;;9.70;;
85303;SDS011;75708;47.930;13.782;2024-03-06T11:08:09;24.20;;;10.90;;
85303;SDS011;75708;47.930;13.782;2024-03-06T11:10:37;21.90;;;10.10;;
85303;SDS011;75708;47.930;13.782;2024-03-06T11:15:49;21.85;;;9.93;;
85303;SDS011;75708;47.930;13.782;2024-03-06T11:23:32;22.02;;;10.38;;
85303;SDS011;75708;47.930;13.782;2024-03-06T11:26:02;28.45;;;12.45;;
85303;SDS011;75708;47.930;13.782;2024-03-06T11:28:32;8.73;;;5.05;;
85303;SDS011;75708;47.930;13.782;2024-03-06T11:31:20;28.45;;;11.10;;
85303;SDS011;75708;47.930;13.782;2024-03-06T11:33:53;25.13;;;10.82;;
85303;SDS011;75708;47.930;13.782;2024-03-06T11:36:23;17.48;;;8.90;;
85303;SDS011;75708;47.930;13.782;2024-03-06T11:39:05;21.70;;;11.32;;
85303;SDS011;75708;47.930;13.782;2024-03-06T11:44:00;23.02;;;11.70;;
85303;SDS011;75708;47.930;13.782;2024-03-06T11:46:45;23.17;;;11.95;;
85303;SDS011;75708;47.930;13.782;2024-03-06T11:51:48;23.88;;;11.23;;
85303;SDS011;75708;47.930;13.782;2024-03-06T11:54:14;16.98;;;8.10;;
85303;SDS011;75708;47.930;13.782;2024-03-06T11:56:42;22.20;;;10.05;;
85303;SDS011;75708;47.930;13.782;2024-03-06T11:59:10;22.10;;;10.00;;
85303;SDS011;75708;47.930;13.782;2024-03-06T12:01:36;16.23;;;7.72;;
85303;SDS011;75708;47.930;13.782;2024-03-06T12:04:03;21.58;;;9.75;;
85303;SDS011;75708;47.930;13.782;2024-03-06T12:06:32;22.35;;;10.50;;
85303;SDS011;75708;47.930;13.782;2024-03-06T12:08:58;17.23;;;8.35;;
85303;SDS011;75708;47.930;13.782;2024-03-06T12:11:23;17.58;;;8.82;;
85303;SDS011;75708;47.930;13.782;2024-03-06T12:13:54;20.15;;;11.18;;
85303;SDS011;75708;47.930;13.782;2024-03-06T12:16:20;20.27;;;8.63;;
85303;SDS011;75708;47.930;13.782;2024-03-06T12:18:46;24.63;;;10.32;;
85303;SDS011;75708;47.930;13.782;2024-03-06T12:21:18;20.10;;;10.48;;
85303;SDS011;75708;47.930;13.782;2024-03-06T12:23:44;20.60;;;9.60;;
85303;SDS011;75708;47.930;13.782;2024-03-06T12:26:09;18.63;;;8.70;;
85303;SDS011;75708;47.930;13.782;2024-03-06T12:28:39;24.00;;;10.30;;
85303;SDS011;75708;47.930;13.782;2024-03-06T12:31:05;20.92;;;10.63;;
85303;SDS011;75708;47.930;13.782;2024-03-06T12:33:33;19.15;;;9.82;;
85303;SDS011;75708;47.930;13.782;2024-03-06T12:38:30;22.42;;;10.23;;
85303;SDS011;75708;47.930;13.782;2024-03-06T12:40:56;17.70;;;8.98;;
85303;SDS011;75708;47.930;13.782;2024-03-06T12:43:23;17.95;;;8.57;;
85303;SDS011;75708;47.930;13.782;2024-03-06T12:45:49;19.52;;;10.00;;
85303;SDS011;75708;47.930;13.782;2024-03-06T12:48:15;20.30;;;9.77;;
85303;SDS011;75708;47.930;13.782;2024-03-06T12:50:40;23.10;;;10.77;;
85303;SDS011;75708;47.930;13.782;2024-03-06T12:53:07;21.50;;;9.60;;
85303;SDS011;75708;47.930;13.782;2024-03-06T12:55:33;16.85;;;8.48;;
85303;SDS011;75708;47.930;13.782;2024-03-06T12:57:58;19.58;;;8.50;;
85303;SDS011;75708;47.930;13.782;2024-03-06T13:00:24;21.88;;;9.70;;
85303;SDS011;75708;47.930;13.782;2024-03-06T13:02:50;22.80;;;11.10;;
85303;SDS011;75708;47.930;13.782;2024-03-06T13:05:16;20.13;;;9.48;;
85303;SDS011;75708;47.930;13.782;2024-03-06T13:07:42;20.35;;;10.05;;
85303;SDS011;75708;47.930;13.782;2024-03-06T13:10:10;22.60;;;10.13;;
85303;SDS011;75708;47.930;13.782;2024-03-06T13:12:36;21.55;;;11.05;;
85303;SDS011;75708;47.930;13.782;2024-03-06T13:15:02;18.55;;;9.30;;
85303;SDS011;75708;47.930;13.782;2024-03-06T13:17:29;20.73;;;10.00;;
85303;SDS011;75708;47.930;13.782;2024-03-06T13:19:55;22.90;;;10.20;;
85303;SDS011;75708;47.930;13.782;2024-03-06T13:22:21;18.83;;;9.18;;
85303;SDS011;75708;47.930;13.782;2024-03-06T13:24:47;20.70;;;9.70;;
85303;SDS011;75708;47.930;13.782;2024-03-06T13:27:13;20.80;;;9.93;;
85303;SDS011;75708;47.930;13.782;2024-03-06T13:29:39;20.70;;;9.48;;
85303;SDS011;75708;47.930;13.782;2024-03-06T13:32:06;21.05;;;10.23;;
85303;SDS011;75708;47.930;13.782;2024-03-06T13:34:32;21.50;;;9.98;;
85303;SDS011;75708;47.930;13.782;2024-03-06T13:36:58;20.75;;;9.77;;
85303;SDS011;75708;47.930;13.782;2024-03-06T13:39:24;20.15;;;9.55;;
85303;SDS011;75708;47.930;13.782;2024-03-06T13:41:50;23.55;;;10.95;;
85303;SDS011;75708;47.930;13.782;2024-03-06T13:44:17;21.85;;;10.20;;
85303;SDS011;75708;47.930;13.782;2024-03-06T13:46:43;20.80;;;10.38;;
85303;SDS011;75708;47.930;13.782;2024-03-06T13:49:12;20.88;;;9.38;;
85303;SDS011;75708;47.930;13.782;2024-03-06T13:52:08;22.58;;;8.98;;
85303;SDS011;75708;47.930;13.782;2024-03-06T13:54:40;19.55;;;8.65;;
85303;SDS011;75708;47.930;13.782;2024-03-06T13:57:07;18.20;;;9.48;;
85303;SDS011;75708;47.930;13.782;2024-03-06T13:59:34;18.75;;;8.95;;
85303;SDS011;75708;47.930;13.782;2024-03-06T14:02:00;19.73;;;10.02;;
85303;SDS011;75708;47.930;13.782;2024-03-06T14:04:27;17.00;;;9.05;;
85303;SDS011;75708;47.930;13.782;2024-03-06T14:06:53;21.70;;;10.18;;
85303;SDS011;75708;47.930;13.782;2024-03-06T14:09:19;20.10;;;9.20;;
85303;SDS011;75708;47.930;13.782;2024-03-06T14:11:44;21.30;;;10.05;;
85303;SDS011;75708;47.930;13.782;2024-03-06T14:14:10;20.10;;;10.23;;
85303;SDS011;75708;47.930;13.782;2024-03-06T14:16:36;19.35;;;9.80;;
85303;SDS011;75708;47.930;13.782;2024-03-06T14:19:02;13.27;;;6.95;;
85303;SDS011;75708;47.930;13.782;2024-03-06T14:21:29;18.83;;;9.40;;
85303;SDS011;75708;47.930;13.782;2024-03-06T14:23:57;20.25;;;10.10;;
85303;SDS011;75708;47.930;13.782;2024-03-06T14:26:23;17.65;;;9.07;;
85303;SDS011;75708;47.930;13.782;2024-03-06T14:28:49;16.88;;;6.88;;